Time;durP1;ratioP1;P1;durP2;ratioP2;P2;SDS_P1;SDS_P2;PMS_P1;PMS_P2;Temp;Humidity;BMP_temperature;BMP_pressure;BME280_temperature;BME280_humidity;BME280_pressure;Samples;Min_cycle;Max_cycle;Signal;HPM_P1;HPM_P2
2021/12/24 00:01:06;;;;;;;23.17;15.70;;;6.40;99.90;;;;;;4932819;28;20063;-82
2021/12/24 00:03:33;;;;;;;27.95;17.52;;;6.30;99.90;;;;;;4949254;28;20134;-82
2021/12/24 00:06:03;;;;;;;19.25;13.25;;;6.40;99.90;;;;;;4949315;28;20043;-81
2021/12/24 00:08:30;;;;;;;22.38;16.38;;;6.30;99.90;;;;;;4965703;28;20055;-82
2021/12/24 00:11:01;;;;;;;20.55;15.25;;;6.40;99.90;;;;;;4932878;28;20055;-82
2021/12/24 00:13:36;;;;;;;22.85;16.52;;;6.40;99.90;;;;;;4965320;28;20055;-81
2021/12/24 00:19:44;;;;;;;24.77;17.60;;;6.40;99.90;;;;;;4927709;28;20051;-81
2021/12/24 00:35:40;;;;;;;17.75;13.50;;;6.50;99.90;;;;;;4928231;28;19931;-79
2021/12/24 00:38:10;;;;;;;18.52;13.93;;;6.50;99.90;;;;;;4911745;29;20720;-80
2021/12/24 00:40:43;;;;;;;18.90;14.15;;;6.50;99.90;;;;;;4911298;29;20051;-78
2021/12/24 00:43:13;;;;;;;16.63;12.60;;;6.50;99.90;;;;;;4926977;29;20458;-82
2021/12/24 00:45:43;;;;;;;21.50;15.68;;;6.50;99.90;;;;;;4911658;29;20051;-82
2021/12/24 00:48:13;;;;;;;21.63;16.00;;;6.50;99.90;;;;;;4924616;29;20058;-82
2021/12/24 00:51:31;;;;;;;25.05;17.05;;;6.50;99.90;;;;;;4928756;28;20052;-79
2021/12/24 00:56:08;;;;;;;26.55;19.20;;;6.50;99.90;;;;;;4958408;28;20118;-79
2021/12/24 00:58:36;;;;;;;23.05;15.80;;;6.50;99.90;;;;;;4930437;29;20367;-78
2021/12/24 01:01:04;;;;;;;21.02;14.57;;;6.50;99.90;;;;;;4966668;28;20581;-80
2021/12/24 01:03:32;;;;;;;22.20;16.40;;;6.50;99.90;;;;;;4925997;29;20087;-79
2021/12/24 01:05:59;;;;;;;26.23;16.63;;;6.60;99.90;;;;;;4937745;28;20098;-79
2021/12/24 01:08:26;;;;;;;18.60;13.35;;;6.60;99.90;;;;;;4926858;29;20129;-79
2021/12/24 01:10:58;;;;;;;28.67;16.45;;;6.60;99.90;;;;;;4927718;29;20044;-78
2021/12/24 01:13:26;;;;;;;24.23;15.18;;;6.60;99.90;;;;;;4928277;29;20055;-80
2021/12/24 01:16:02;;;;;;;25.05;15.82;;;6.70;99.90;;;;;;4932228;28;20051;-79
2021/12/24 01:18:40;;;;;;;21.88;14.45;;;6.60;99.90;;;;;;4946080;28;20113;-79
2021/12/24 01:23:49;;;;;;;23.90;16.77;;;6.70;99.90;;;;;;4946807;29;20055;-80
2021/12/24 01:26:49;;;;;;;26.00;16.35;;;6.70;99.90;;;;;;4930648;28;20043;-80
2021/12/24 01:40:21;;;;;;;35.80;19.90;;;6.70;99.90;;;;;;4962986;28;20051;-82
2021/12/24 01:42:50;;;;;;;21.75;12.75;;;6.70;99.90;;;;;;4930599;29;20278;-81
2021/12/24 01:45:20;;;;;;;29.65;18.02;;;6.70;99.90;;;;;;4945710;28;20055;-81
2021/12/24 01:47:48;;;;;;;33.92;19.92;;;6.80;99.90;;;;;;4957150;28;20101;-80
2021/12/24 01:50:17;;;;;;;37.67;20.88;;;6.80;99.90;;;;;;4932231;28;20055;-82
2021/12/24 01:52:44;;;;;;;34.38;20.02;;;6.80;99.90;;;;;;4961308;28;20059;-81
2021/12/24 01:55:11;;;;;;;32.75;18.25;;;6.80;99.90;;;;;;4962287;28;20055;-81
2021/12/24 01:57:41;;;;;;;24.88;17.05;;;6.80;99.90;;;;;;4961981;28;20055;-82
2021/12/24 02:00:11;;;;;;;33.95;19.75;;;6.80;99.90;;;;;;4980358;28;20111;-81
2021/12/24 02:02:41;;;;;;;38.47;20.75;;;6.90;99.90;;;;;;4931337;29;20067;-82
2021/12/24 02:05:09;;;;;;;50.10;25.20;;;6.80;99.90;;;;;;4962762;28;20066;-81
2021/12/24 02:07:37;;;;;;;47.20;24.40;;;6.90;99.90;;;;;;4944982;29;20050;-80
2021/12/24 02:10:09;;;;;;;34.88;20.80;;;6.90;99.90;;;;;;4930863;29;20051;-78
2021/12/24 02:12:37;;;;;;;35.33;20.42;;;6.90;99.90;;;;;;4930840;29;20065;-79
2021/12/24 02:15:09;;;;;;;38.33;20.20;;;6.90;99.90;;;;;;4945925;28;20051;-82
2021/12/24 02:17:55;;;;;;;27.40;15.98;;;6.90;99.90;;;;;;4969933;28;20375;-82
2021/12/24 02:28:44;;;;;;;40.05;21.70;;;7.00;99.90;;;;;;4945619;28;20058;-79
2021/12/24 02:31:16;;;;;;;50.40;25.10;;;7.00;99.90;;;;;;4955141;28;20154;-80
2021/12/24 02:33:44;;;;;;;63.42;28.83;;;7.00;99.90;;;;;;4979591;28;20043;-79
2021/12/24 02:36:12;;;;;;;49.50;27.55;;;7.00;99.90;;;;;;4946859;28;20102;-79
2021/12/24 02:38:39;;;;;;;37.47;20.88;;;7.00;99.90;;;;;;4963316;28;20059;-78
2021/12/24 02:41:08;;;;;;;56.20;27.77;;;7.00;99.90;;;;;;4963332;28;20111;-82
2021/12/24 02:43:36;;;;;;;57.95;27.92;;;7.00;99.90;;;;;;4963844;28;20055;-82
2021/12/24 02:46:13;;;;;;;46.05;24.40;;;7.00;99.90;;;;;;4964042;28;20051;-79
2021/12/24 02:54:08;;;;;;;48.15;24.20;;;7.00;99.90;;;;;;4966936;28;20106;-78
2021/12/24 02:56:37;;;;;;;47.22;25.75;;;7.00;99.90;;;;;;4965541;28;20183;-79
2021/12/24 02:59:07;;;;;;;41.35;22.90;;;7.00;99.90;;;;;;4959509;28;20062;-79
2021/12/24 03:01:37;;;;;;;25.83;15.60;;;7.00;99.90;;;;;;4965022;28;20052;-81
2021/12/24 03:04:06;;;;;;;37.55;20.88;;;7.10;99.90;;;;;;4947020;28;20094;-79
2021/12/24 03:06:36;;;;;;;40.78;21.73;;;7.10;99.90;;;;;;4931812;29;20174;-80
2021/12/24 03:09:06;;;;;;;43.13;22.38;;;7.10;99.90;;;;;;4934998;29;20050;-79
2021/12/24 03:11:34;;;;;;;55.95;27.35;;;7.10;99.90;;;;;;4966008;28;20574;-78
2021/12/24 03:14:04;;;;;;;54.80;26.05;;;7.10;99.90;;;;;;4934000;28;20059;-79
2021/12/24 03:16:31;;;;;;;44.42;25.05;;;7.10;99.90;;;;;;4975132;28;20047;-78
2021/12/24 03:18:58;;;;;;;53.97;28.65;;;7.10;99.90;;;;;;4945736;28;20457;-79
2021/12/24 03:21:38;;;;;;;48.55;26.73;;;7.10;99.90;;;;;;4979397;28;20130;-79
2021/12/24 03:26:51;;;;;;;44.70;27.30;;;7.10;99.90;;;;;;4965736;28;20340;-78
2021/12/24 03:29:19;;;;;;;45.60;24.90;;;7.10;99.90;;;;;;4974473;28;20054;-78
2021/12/24 03:31:47;;;;;;;39.45;23.17;;;7.10;99.90;;;;;;4965466;28;20082;-80
2021/12/24 03:34:17;;;;;;;43.08;24.55;;;7.10;99.90;;;;;;4982391;28;20047;-82
2021/12/24 03:36:44;;;;;;;47.40;25.40;;;7.20;99.90;;;;;;4949312;28;20035;-80
2021/12/24 03:39:15;;;;;;;45.47;24.77;;;7.20;99.90;;;;;;4934184;29;20079;-79
2021/12/24 03:41:42;;;;;;;48.63;27.50;;;7.20;99.90;;;;;;4966091;28;20074;-79
2021/12/24 03:44:11;;;;;;;52.80;28.35;;;7.20;99.90;;;;;;4950561;28;20047;-81
2021/12/24 03:49:31;;;;;;;61.33;31.13;;;7.20;99.90;;;;;;4972928;28;20090;-80
2021/12/24 03:52:14;;;;;;;55.55;27.25;;;7.20;99.90;;;;;;4950204;28;20631;-81
2021/12/24 03:54:57;;;;;;;31.83;20.33;;;7.20;99.90;;;;;;4982215;28;20055;-82
2021/12/24 03:57:43;;;;;;;40.33;23.02;;;7.20;99.90;;;;;;4932340;29;20095;-81
2021/12/24 04:00:18;;;;;;;43.60;23.42;;;7.20;99.90;;;;;;4965589;28;20067;-81
2021/12/24 04:02:55;;;;;;;30.90;19.45;;;7.30;99.90;;;;;;4914054;29;20146;-80
2021/12/24 04:05:43;;;;;;;42.33;22.20;;;7.30;99.90;;;;;;4952274;28;20051;-80
2021/12/24 04:08:28;;;;;;;39.40;21.73;;;7.30;99.90;;;;;;4948471;29;20055;-81
2021/12/24 04:11:09;;;;;;;42.35;22.83;;;7.30;99.90;;;;;;4933257;29;20049;-82
2021/12/24 04:13:38;;;;;;;70.35;28.17;;;7.30;99.90;;;;;;4933543;29;20399;-81
2021/12/24 04:16:05;;;;;;;96.00;34.90;;;7.30;99.90;;;;;;4964647;28;20114;-82
2021/12/24 04:26:41;;;;;;;94.63;34.72;;;7.30;99.90;;;;;;4961591;28;20117;-80
2021/12/24 04:29:08;;;;;;;54.03;25.52;;;7.30;99.90;;;;;;4966208;28;20075;-84
2021/12/24 04:31:44;;;;;;;60.58;28.50;;;7.30;99.90;;;;;;4950407;28;20058;-82
2021/12/24 04:34:50;;;;;;;75.00;31.58;;;7.30;99.90;;;;;;4932642;29;20051;-81
2021/12/24 04:38:04;;;;;;;53.55;23.98;;;7.40;99.90;;;;;;4943717;29;20055;-82
2021/12/24 04:51:23;;;;;;;71.47;30.77;;;7.40;99.90;;;;;;4951110;28;20518;-81
2021/12/24 05:04:57;;;;;;;56.80;26.58;;;7.50;99.90;;;;;;4996064;28;20051;-81
2021/12/24 05:10:34;;;;;;;54.80;25.25;;;7.40;99.90;;;;;;4936387;28;20246;-81
2021/12/24 05:13:01;;;;;;;;;;;7.50;99.90;;;;;;4973791;28;20061;-82
2021/12/24 05:15:40;;;;;;;57.10;28.50;;;7.50;99.90;;;;;;4980670;28;20441;-83
2021/12/24 05:23:58;;;;;;;;;;;7.50;99.90;;;;;;4952073;28;20051;-82
2021/12/24 05:26:25;;;;;;;59.17;27.70;;;7.60;99.90;;;;;;4954144;28;19926;-82
2021/12/24 05:28:52;;;;;;;65.35;31.80;;;7.50;99.90;;;;;;4937397;29;20167;-83
2021/12/24 05:31:20;;;;;;;55.13;27.73;;;7.50;99.90;;;;;;4972161;28;20805;-82
2021/12/24 05:33:47;;;;;;;63.85;29.40;;;7.50;99.90;;;;;;4983140;28;20047;-83
2021/12/24 05:36:13;;;;;;;56.30;27.65;;;7.60;99.90;;;;;;4966695;28;20055;-82
2021/12/24 05:38:41;;;;;;;72.75;31.38;;;7.60;99.90;;;;;;4950326;28;20066;-83
2021/12/24 05:41:07;;;;;;;56.67;26.98;;;7.50;99.90;;;;;;4965238;28;20154;-81
2021/12/24 05:43:34;;;;;;;51.88;24.80;;;7.60;99.90;;;;;;4933892;29;20055;-81
2021/12/24 05:46:01;;;;;;;62.90;28.77;;;7.60;99.90;;;;;;4949261;28;20593;-81
2021/12/24 05:48:40;;;;;;;55.53;25.50;;;7.60;99.90;;;;;;4965543;28;20051;-83
2021/12/24 05:51:10;;;;;;;46.00;22.65;;;7.60;99.90;;;;;;4965799;28;20647;-82
2021/12/24 05:53:46;;;;;;;60.97;26.65;;;7.60;99.90;;;;;;4964731;28;20099;-82
2021/12/24 05:56:17;;;;;;;58.85;27.27;;;7.60;99.90;;;;;;4968627;28;20567;-80
2021/12/24 05:58:49;;;;;;;48.40;24.42;;;7.60;99.90;;;;;;4976979;28;20047;-82
2021/12/24 06:01:15;;;;;;;63.35;27.50;;;7.60;99.90;;;;;;4942622;28;20048;-82
2021/12/24 06:03:46;;;;;;;73.88;29.83;;;7.60;99.90;;;;;;4962038;28;20106;-81
2021/12/24 06:06:13;;;;;;;37.20;20.13;;;7.60;99.90;;;;;;4978268;28;20763;-82
2021/12/24 06:08:40;;;;;;;64.47;26.08;;;7.60;99.90;;;;;;4937505;29;20550;-82
2021/12/24 06:11:07;;;;;;;56.88;25.88;;;7.60;99.90;;;;;;4953859;28;20051;-82
2021/12/24 06:13:35;;;;;;;67.55;29.50;;;7.60;99.90;;;;;;4950001;29;20150;-81
2021/12/24 06:16:05;;;;;;;75.60;29.73;;;7.60;99.90;;;;;;4934318;28;20043;-82
2021/12/24 06:18:32;;;;;;;87.55;35.15;;;7.60;99.90;;;;;;4926581;29;20059;-83
2021/12/24 06:21:01;;;;;;;68.03;30.42;;;7.60;99.90;;;;;;4949196;28;20053;-82
2021/12/24 06:23:28;;;;;;;69.28;32.75;;;7.60;99.90;;;;;;4959264;28;20055;-83
2021/12/24 06:25:57;;;;;;;96.05;39.95;;;7.60;99.90;;;;;;4990604;28;20077;-83
2021/12/24 06:28:26;;;;;;;85.78;36.58;;;7.60;99.90;;;;;;4968207;28;20054;-83
2021/12/24 06:30:53;;;;;;;80.07;34.92;;;7.60;99.90;;;;;;4956983;28;20043;-81
2021/12/24 06:33:20;;;;;;;98.65;38.00;;;7.60;99.90;;;;;;4983726;28;20063;-83
2021/12/24 06:35:47;;;;;;;85.80;33.22;;;7.60;99.90;;;;;;4951612;28;20115;-82
2021/12/24 06:38:15;;;;;;;120.13;43.70;;;7.60;99.90;;;;;;4932193;29;20154;-84
2021/12/24 06:40:42;;;;;;;104.07;44.97;;;7.60;99.90;;;;;;4933246;28;20091;-83
2021/12/24 06:43:09;;;;;;;107.50;41.50;;;7.60;99.90;;;;;;4919676;29;20052;-84
2021/12/24 06:45:35;;;;;;;120.22;44.42;;;7.60;99.90;;;;;;4917896;29;20052;-83
2021/12/24 06:48:04;;;;;;;114.43;44.65;;;7.60;99.90;;;;;;4967604;28;20150;-84
2021/12/24 06:50:31;;;;;;;108.55;41.58;;;7.60;99.90;;;;;;4922222;29;20121;-84
2021/12/24 06:52:58;;;;;;;81.00;37.85;;;7.60;99.90;;;;;;4956258;29;20078;-82
2021/12/24 06:55:25;;;;;;;112.13;45.15;;;7.50;99.90;;;;;;4950691;28;20058;-83
2021/12/24 06:57:59;;;;;;;97.30;42.45;;;7.60;99.90;;;;;;4973577;28;20050;-84
2021/12/24 07:00:26;;;;;;;99.78;43.35;;;7.50;99.90;;;;;;4976056;28;20070;-84
2021/12/24 07:02:54;;;;;;;118.03;46.92;;;7.50;99.90;;;;;;4941772;29;20055;-82
2021/12/24 07:05:21;;;;;;;112.20;44.28;;;7.50;99.90;;;;;;4973071;28;22987;-83
2021/12/24 07:07:48;;;;;;;130.65;49.00;;;7.60;99.90;;;;;;4970101;28;20074;-83
2021/12/24 07:10:15;;;;;;;141.75;55.22;;;7.60;99.90;;;;;;4983743;28;20147;-81
2021/12/24 07:12:42;;;;;;;110.10;45.90;;;7.50;99.90;;;;;;4936202;29;20283;-82
2021/12/24 07:15:09;;;;;;;138.75;48.58;;;7.50;99.90;;;;;;4934436;28;20051;-84
2021/12/24 07:17:36;;;;;;;131.43;50.30;;;7.50;99.90;;;;;;4934380;29;20109;-82
2021/12/24 07:20:04;;;;;;;134.85;52.22;;;7.50;99.90;;;;;;4939250;29;20109;-82
2021/12/24 07:22:31;;;;;;;131.68;49.15;;;7.50;99.90;;;;;;4964494;28;20135;-82
2021/12/24 07:24:57;;;;;;;130.23;48.53;;;7.50;99.90;;;;;;4959925;28;20109;-83
2021/12/24 07:27:24;;;;;;;139.70;53.22;;;7.50;99.90;;;;;;4968168;28;20106;-83
2021/12/24 07:29:51;;;;;;;125.18;49.63;;;7.60;99.90;;;;;;4938515;29;20047;-83
2021/12/24 07:32:18;;;;;;;132.57;49.25;;;7.50;99.90;;;;;;4978266;28;20748;-82
2021/12/24 07:34:44;;;;;;;139.25;53.50;;;7.50;99.90;;;;;;4963976;28;20064;-81
2021/12/24 07:37:11;;;;;;;125.18;50.42;;;7.50;99.90;;;;;;4954233;28;20039;-84
2021/12/24 07:39:38;;;;;;;115.53;46.08;;;7.50;99.90;;;;;;4929326;29;20738;-83
2021/12/24 07:42:05;;;;;;;112.40;45.67;;;7.50;99.90;;;;;;4964685;28;20813;-83
2021/12/24 07:44:35;;;;;;;121.75;47.08;;;7.50;99.90;;;;;;4932927;29;20384;-82
2021/12/24 07:47:05;;;;;;;115.45;45.13;;;7.50;99.90;;;;;;4931251;29;20044;-85
2021/12/24 07:49:38;;;;;;;98.30;41.55;;;7.60;99.90;;;;;;4963141;28;20056;-83
2021/12/24 07:54:43;;;;;;;98.55;40.45;;;7.50;99.90;;;;;;4947170;28;20052;-83
2021/12/24 07:57:12;;;;;;;101.68;40.08;;;7.50;99.90;;;;;;4946340;28;20051;-81
2021/12/24 07:59:40;;;;;;;105.20;43.15;;;7.50;99.90;;;;;;4936386;29;20048;-84
2021/12/24 08:02:16;;;;;;;103.50;41.38;;;7.50;99.90;;;;;;4962837;28;20051;-83
2021/12/24 08:04:45;;;;;;;101.38;39.25;;;7.50;99.90;;;;;;4948292;28;20043;-82
2021/12/24 08:07:14;;;;;;;102.30;41.33;;;7.50;99.90;;;;;;4947482;29;20396;-83
2021/12/24 08:09:42;;;;;;;111.43;43.42;;;7.50;99.90;;;;;;4950507;28;20051;-83
2021/12/24 08:12:10;;;;;;;100.47;43.55;;;7.50;99.90;;;;;;4933926;28;20408;-83
2021/12/24 08:14:37;;;;;;;110.20;44.72;;;7.50;99.90;;;;;;4959587;28;20055;-83
2021/12/24 08:17:05;;;;;;;106.32;43.38;;;7.50;99.90;;;;;;4940039;28;20098;-83
2021/12/24 08:19:32;;;;;;;96.03;40.35;;;7.50;99.90;;;;;;4965714;28;20089;-82
2021/12/24 08:21:59;;;;;;;94.22;41.25;;;7.50;99.90;;;;;;4935018;28;20059;-82
2021/12/24 08:24:26;;;;;;;105.20;42.80;;;7.50;99.90;;;;;;4950445;28;20066;-83
2021/12/24 08:26:53;;;;;;;103.70;43.72;;;7.60;99.90;;;;;;4950688;28;20047;-82
2021/12/24 08:29:22;;;;;;;104.88;43.65;;;7.50;99.90;;;;;;4959885;28;20051;-83
2021/12/24 08:31:50;;;;;;;86.55;38.13;;;7.60;99.90;;;;;;4981909;28;20142;-83
2021/12/24 08:34:19;;;;;;;92.00;38.42;;;7.50;99.90;;;;;;4963311;28;20048;-81
2021/12/24 08:36:47;;;;;;;81.20;36.35;;;7.50;99.90;;;;;;4957203;28;20055;-84
2021/12/24 08:39:16;;;;;;;97.60;40.63;;;7.50;99.90;;;;;;4944464;29;20127;-84
2021/12/24 08:41:44;;;;;;;103.75;46.20;;;7.50;99.90;;;;;;4953013;28;20074;-83
2021/12/24 08:44:10;;;;;;;98.85;41.90;;;7.50;99.90;;;;;;4918268;29;20649;-84
2021/12/24 08:46:38;;;;;;;93.07;39.70;;;7.60;99.90;;;;;;4930059;28;20082;-83
2021/12/24 08:49:05;;;;;;;89.45;38.92;;;7.60;99.90;;;;;;4964874;28;20535;-83
2021/12/24 08:51:32;;;;;;;85.50;39.22;;;7.50;99.90;;;;;;4930737;29;20131;-81
2021/12/24 08:53:59;;;;;;;85.72;38.67;;;7.50;99.90;;;;;;4963579;28;20055;-82
2021/12/24 08:56:25;;;;;;;81.75;38.95;;;7.50;99.90;;;;;;4946654;28;20054;-83
2021/12/24 08:58:52;;;;;;;78.15;35.40;;;7.60;99.90;;;;;;4954902;28;20059;-83
2021/12/24 09:01:19;;;;;;;75.53;34.78;;;7.50;99.90;;;;;;4943990;29;20115;-84
2021/12/24 09:03:46;;;;;;;77.28;35.35;;;7.60;99.90;;;;;;4957606;28;20165;-83
2021/12/24 09:06:13;;;;;;;74.43;33.38;;;7.50;99.90;;;;;;4932324;29;20094;-82
2021/12/24 09:08:43;;;;;;;80.20;35.92;;;7.50;99.90;;;;;;4941009;29;20133;-83
2021/12/24 09:11:10;;;;;;;73.07;34.20;;;7.50;99.90;;;;;;4939524;28;20070;-84
2021/12/24 09:13:37;;;;;;;80.65;36.03;;;7.50;99.90;;;;;;4973080;28;20055;-82
2021/12/24 09:16:04;;;;;;;87.38;36.42;;;7.50;99.90;;;;;;4955205;28;20051;-83
2021/12/24 09:18:31;;;;;;;81.63;35.78;;;7.50;99.90;;;;;;4961960;28;20039;-82
2021/12/24 09:21:02;;;;;;;67.53;31.23;;;7.50;99.90;;;;;;4988060;28;20158;-82
2021/12/24 09:23:29;;;;;;;85.55;36.67;;;7.50;99.90;;;;;;4970760;28;20075;-84
2021/12/24 09:26:15;;;;;;;86.75;35.70;;;7.50;99.90;;;;;;4935678;28;20055;-83
2021/12/24 09:28:44;;;;;;;86.57;37.55;;;7.50;99.90;;;;;;4957117;28;20086;-83
2021/12/24 09:31:11;;;;;;;76.50;34.95;;;7.50;99.90;;;;;;4975197;28;20051;-81
2021/12/24 09:33:38;;;;;;;78.90;33.20;;;7.50;99.90;;;;;;4954384;28;20085;-83
2021/12/24 09:36:06;;;;;;;80.00;36.35;;;7.50;99.90;;;;;;4985981;28;20162;-85
2021/12/24 09:38:33;;;;;;;71.80;33.47;;;7.50;99.90;;;;;;5000734;28;20061;-82
2021/12/24 09:41:00;;;;;;;76.18;33.72;;;7.50;99.90;;;;;;4948430;28;20047;-83
2021/12/24 09:43:27;;;;;;;72.20;32.50;;;7.50;99.90;;;;;;4938280;29;20059;-83
2021/12/24 09:45:54;;;;;;;79.93;35.60;;;7.50;99.90;;;;;;4974106;28;20047;-84
2021/12/24 09:48:21;;;;;;;85.97;37.30;;;7.50;99.90;;;;;;4945494;28;20492;-82
2021/12/24 09:50:47;;;;;;;68.28;30.90;;;7.50;99.90;;;;;;4936255;29;20121;-83
2021/12/24 09:53:14;;;;;;;83.70;35.25;;;7.50;99.90;;;;;;4952195;28;20110;-83
2021/12/24 09:55:41;;;;;;;87.82;36.47;;;7.50;99.90;;;;;;4954422;28;20078;-84
2021/12/24 09:58:08;;;;;;;87.25;36.10;;;7.50;99.90;;;;;;4937696;29;20739;-84
2021/12/24 10:00:34;;;;;;;64.03;30.30;;;7.50;99.90;;;;;;4964289;28;20117;-83
2021/12/24 10:03:01;;;;;;;94.32;39.42;;;7.50;99.90;;;;;;4956247;28;20055;-82
2021/12/24 10:05:33;;;;;;;75.38;34.05;;;7.50;99.90;;;;;;4955365;28;20047;-82
2021/12/24 10:08:15;;;;;;;82.75;36.88;;;7.50;99.90;;;;;;4972999;28;20114;-83
2021/12/24 10:10:44;;;;;;;85.72;35.75;;;7.50;99.90;;;;;;4940324;28;20051;-83
2021/12/24 10:13:32;;;;;;;91.25;38.42;;;7.50;99.90;;;;;;4957715;28;20063;-83
2021/12/24 10:16:08;;;;;;;98.28;38.03;;;7.50;99.90;;;;;;4954335;28;20047;-82
2021/12/24 10:18:34;;;;;;;96.63;40.30;;;7.40;99.90;;;;;;4970013;28;20051;-82
2021/12/24 10:21:06;;;;;;;92.10;39.88;;;7.40;99.90;;;;;;4958944;28;20153;-83
2021/12/24 10:23:41;;;;;;;99.35;36.60;;;7.40;99.90;;;;;;4941254;29;20059;-82
2021/12/24 10:26:17;;;;;;;89.22;36.83;;;7.50;99.90;;;;;;4939878;28;20126;-84
2021/12/24 10:28:53;;;;;;;106.70;42.28;;;7.40;99.90;;;;;;4939982;28;20058;-82
2021/12/24 10:31:22;;;;;;;96.20;39.60;;;7.40;99.90;;;;;;4947627;28;20503;-84
2021/12/24 10:34:06;;;;;;;94.60;38.65;;;7.40;99.90;;;;;;4972079;28;20067;-81
2021/12/24 10:36:49;;;;;;;76.13;33.95;;;7.40;99.90;;;;;;4968983;28;20357;-83
2021/12/24 10:39:17;;;;;;;108.93;40.88;;;7.30;99.90;;;;;;4971774;28;20062;-83
2021/12/24 10:41:46;;;;;;;83.13;34.63;;;7.40;99.90;;;;;;4970475;28;20055;-83
2021/12/24 10:44:30;;;;;;;73.93;31.35;;;7.30;99.90;;;;;;4954144;28;20121;-83
2021/12/24 10:47:39;;;;;;;84.05;35.03;;;7.30;99.90;;;;;;4938843;28;20047;-82
2021/12/24 10:53:33;;;;;;;65.30;31.50;;;7.30;99.90;;;;;;4969489;28;20155;-84
2021/12/24 10:55:36;;;;;;;74.00;30.73;;;7.30;99.90;;;;;;4926819;29;20058;-83
2021/12/24 10:58:06;;;;;;;87.13;35.42;;;7.30;99.90;;;;;;4938141;29;20055;-83
2021/12/24 11:00:43;;;;;;;72.00;32.17;;;7.30;99.90;;;;;;4993450;28;20109;-81
2021/12/24 11:03:19;;;;;;;65.63;28.48;;;7.30;99.90;;;;;;4970862;28;20059;-81
2021/12/24 11:06:09;;;;;;;72.97;31.15;;;7.30;99.90;;;;;;4936926;29;20772;-83
2021/12/24 11:08:37;;;;;;;64.22;28.67;;;7.30;99.90;;;;;;4938423;29;20629;-82
2021/12/24 11:11:07;;;;;;;64.90;30.13;;;7.30;99.90;;;;;;4971027;28;20074;-84
2021/12/24 11:13:41;;;;;;;71.75;30.90;;;7.30;99.90;;;;;;4954045;29;20133;-84
2021/12/24 11:16:10;;;;;;;77.03;33.72;;;7.30;99.90;;;;;;4970537;28;20070;-82
2021/12/24 11:18:41;;;;;;;88.07;34.72;;;7.30;99.90;;;;;;4947594;28;20078;-86
2021/12/24 11:21:20;;;;;;;84.55;34.10;;;7.20;99.90;;;;;;4959317;28;20043;-86
2021/12/24 11:23:47;;;;;;;67.30;29.98;;;7.30;99.90;;;;;;4940383;28;20118;-84
2021/12/24 11:26:16;;;;;;;59.40;26.08;;;7.30;99.90;;;;;;4970462;28;20114;-82
2021/12/24 11:28:44;;;;;;;67.82;26.40;;;7.20;99.90;;;;;;4969510;28;20066;-84
2021/12/24 11:31:15;;;;;;;79.10;31.27;;;7.20;99.90;;;;;;4959582;28;20110;-84
2021/12/24 11:33:44;;;;;;;72.72;28.55;;;7.20;99.90;;;;;;4971214;28;20055;-82
2021/12/24 11:36:17;;;;;;;84.93;32.50;;;7.20;99.90;;;;;;4938683;28;20047;-84
2021/12/24 11:38:47;;;;;;;61.80;27.20;;;7.20;99.90;;;;;;4970819;28;20055;-84
2021/12/24 11:41:15;;;;;;;66.90;29.75;;;7.20;99.90;;;;;;4970833;28;20137;-84
2021/12/24 11:43:45;;;;;;;73.25;27.88;;;7.20;99.90;;;;;;4969098;28;20043;-85
2021/12/24 11:46:19;;;;;;;56.30;24.42;;;7.30;99.90;;;;;;4969213;28;20043;-83
2021/12/24 11:48:48;;;;;;;51.28;23.30;;;7.30;99.90;;;;;;4955336;28;20047;-84
2021/12/24 11:51:17;;;;;;;52.30;24.30;;;7.30;99.90;;;;;;4935910;29;20043;-85
2021/12/24 11:53:44;;;;;;;58.25;25.27;;;7.30;99.90;;;;;;4952511;28;20062;-84
2021/12/24 11:56:15;;;;;;;48.25;22.40;;;7.30;99.90;;;;;;4954965;28;20063;-83
2021/12/24 11:58:49;;;;;;;52.15;22.02;;;7.30;99.90;;;;;;4952452;28;20051;-83
2021/12/24 12:01:19;;;;;;;59.63;24.55;;;7.30;99.90;;;;;;4969037;28;20058;-84
2021/12/24 12:03:49;;;;;;;58.33;25.05;;;7.30;99.90;;;;;;4953499;29;20642;-83
2021/12/24 12:06:22;;;;;;;64.32;26.05;;;7.30;99.90;;;;;;4981632;28;20047;-82
2021/12/24 12:09:10;;;;;;;55.30;24.02;;;7.30;99.90;;;;;;4936821;29;20047;-84
2021/12/24 12:11:41;;;;;;;56.10;23.90;;;7.30;99.90;;;;;;4967810;28;20074;-83
2021/12/24 12:14:11;;;;;;;65.38;27.65;;;7.30;99.90;;;;;;4968553;28;20054;-83
2021/12/24 12:16:51;;;;;;;66.05;26.95;;;7.30;99.90;;;;;;4982135;28;20098;-84
2021/12/24 12:25:37;;;;;;;62.72;28.15;;;7.30;99.90;;;;;;4934555;29;20051;-82
2021/12/24 12:28:10;;;;;;;72.47;28.02;;;7.30;99.90;;;;;;4966128;28;20055;-84
2021/12/24 12:30:48;;;;;;;70.57;31.80;;;7.30;99.90;;;;;;4964054;28;20094;-85
2021/12/24 12:33:22;;;;;;;80.32;31.52;;;7.40;99.90;;;;;;4974307;28;20047;-83
2021/12/24 12:35:58;;;;;;;86.30;33.77;;;7.40;99.90;;;;;;4934180;28;20071;-85
2021/12/24 12:38:30;;;;;;;86.60;35.25;;;7.30;99.90;;;;;;4966259;28;20059;-84
2021/12/24 12:41:35;;;;;;;69.90;30.35;;;7.30;99.90;;;;;;4943078;28;20040;-83
2021/12/24 12:44:11;;;;;;;78.05;30.75;;;7.30;99.90;;;;;;4897651;29;20070;-84
2021/12/24 12:46:41;;;;;;;77.40;32.80;;;7.30;99.90;;;;;;4929974;28;20047;-83
2021/12/24 12:49:10;;;;;;;59.30;26.80;;;7.30;99.90;;;;;;4945872;29;20138;-83
2021/12/24 12:51:54;;;;;;;65.15;27.38;;;7.30;99.90;;;;;;4943243;28;20142;-84
2021/12/24 12:54:33;;;;;;;69.47;31.35;;;7.30;99.90;;;;;;4966033;28;20284;-82
2021/12/24 12:57:12;;;;;;;66.80;27.60;;;7.30;99.90;;;;;;4932654;28;20047;-83
2021/12/24 12:59:41;;;;;;;62.75;25.70;;;7.20;99.90;;;;;;4968723;28;20138;-84
2021/12/24 13:02:07;;;;;;;70.93;29.13;;;7.20;99.90;;;;;;4938976;28;20152;-85
2021/12/24 13:04:34;;;;;;;74.63;32.58;;;7.20;99.90;;;;;;4980938;28;20114;-84
2021/12/24 13:07:01;;;;;;;70.95;30.13;;;7.30;99.90;;;;;;4922499;29;20048;-84
2021/12/24 13:09:35;;;;;;;80.35;32.15;;;7.20;99.90;;;;;;4949303;29;20138;-86
2021/12/24 13:12:03;;;;;;;82.25;32.72;;;7.20;99.90;;;;;;4953649;28;20451;-84
2021/12/24 13:14:32;;;;;;;84.53;33.58;;;7.20;99.90;;;;;;4952248;28;20058;-85
2021/12/24 13:17:18;;;;;;;70.57;29.90;;;7.20;99.90;;;;;;4953170;28;20047;-84
2021/12/24 13:22:36;;;;;;;85.97;35.03;;;7.20;99.90;;;;;;4967487;28;20544;-84
2021/12/24 13:25:15;;;;;;;60.10;26.15;;;7.20;99.90;;;;;;4982169;28;20696;-85
2021/12/24 13:27:54;;;;;;;69.18;29.15;;;7.20;99.90;;;;;;4951001;28;20062;-83
2021/12/24 13:30:33;;;;;;;62.45;27.50;;;7.20;99.90;;;;;;4960389;28;20059;-84
2021/12/24 13:33:04;;;;;;;62.70;27.95;;;7.20;99.90;;;;;;4951949;29;20130;-84
2021/12/24 13:35:39;;;;;;;70.30;30.58;;;7.30;99.90;;;;;;4950880;28;20039;-85
2021/12/24 13:38:24;;;;;;;72.90;32.67;;;7.30;99.90;;;;;;4966470;28;20115;-85
2021/12/24 13:40:51;;;;;;;;;;;7.30;99.90;;;;;;4951484;28;20601;-83
2021/12/24 13:43:19;;;;;;;58.08;24.38;;;7.30;99.90;;;;;;4966369;28;19981;-82
2021/12/24 13:45:49;;;;;;;70.78;29.30;;;7.30;99.90;;;;;;4933892;28;20273;-83
2021/12/24 13:48:27;;;;;;;78.07;32.85;;;7.30;99.90;;;;;;4949233;28;20055;-86
2021/12/24 13:56:42;;;;;;;60.90;25.73;;;7.30;99.90;;;;;;4941089;28;20118;-85
2021/12/24 13:59:11;;;;;;;65.25;26.77;;;7.30;99.90;;;;;;4947857;28;20052;-83
2021/12/24 14:01:41;;;;;;;57.22;25.35;;;7.20;99.90;;;;;;4942688;28;20159;-84
2021/12/24 14:04:09;;;;;;;76.03;31.88;;;7.20;99.90;;;;;;4937461;29;20118;-85
2021/12/24 14:06:47;;;;;;;68.72;31.65;;;7.30;99.90;;;;;;4945341;28;20130;-84
2021/12/24 14:09:30;;;;;;;67.72;32.45;;;7.30;99.90;;;;;;4946261;28;20051;-85
2021/12/24 14:11:59;;;;;;;68.47;32.53;;;7.20;99.90;;;;;;4945541;28;20051;-83
2021/12/24 14:14:55;;;;;;;65.28;28.17;;;7.30;99.90;;;;;;4930014;29;20094;-83
2021/12/24 14:22:24;;;;;;;53.83;26.15;;;7.30;99.90;;;;;;4945922;28;20191;-84
2021/12/24 14:24:56;;;;;;;68.78;30.92;;;7.30;99.90;;;;;;4931520;29;20059;-85
2021/12/24 14:27:27;;;;;;;61.22;27.92;;;7.30;99.90;;;;;;4962840;28;20043;-83
2021/12/24 14:30:06;;;;;;;63.38;27.98;;;7.30;99.90;;;;;;4933006;29;20055;-85
2021/12/24 14:32:35;;;;;;;69.38;28.92;;;7.30;99.90;;;;;;4974611;28;20513;-83
2021/12/24 14:35:21;;;;;;;64.10;28.40;;;7.20;99.90;;;;;;4938969;28;20130;-83
2021/12/24 14:37:53;;;;;;;73.57;31.85;;;7.20;99.90;;;;;;4911600;29;20088;-84
2021/12/24 14:40:21;;;;;;;58.45;27.20;;;7.20;99.90;;;;;;4958601;28;20550;-83
2021/12/24 14:42:51;;;;;;;72.82;31.45;;;7.30;99.90;;;;;;4930867;29;20060;-85
2021/12/24 14:45:32;;;;;;;81.25;34.38;;;7.30;99.90;;;;;;4913712;29;20569;-83
2021/12/24 14:48:16;;;;;;;75.30;31.58;;;7.30;99.90;;;;;;4930553;29;20123;-84
2021/12/24 14:51:03;;;;;;;81.72;34.17;;;7.20;99.90;;;;;;4946015;28;20072;-84
2021/12/24 14:53:38;;;;;;;71.93;32.83;;;7.20;99.90;;;;;;4947750;29;20138;-82